• Join FlightAware (Why Join?)
  • Login
  • US Flag 
11:45PM EDT


 

Airport Tracker/Info


-or-


 

Live Flight TrackerFlight Track Log ✈ N531QS ✈ 24-Jun-2013 ✈ LEMD / MAD - KTEB

Flight Track Log - Related Links

Times and Time Zones

All times are in EDT time to prevent confusion due to time zone crossing. See the N531QS flight status page for this flight to view local times or setup timezone preferences in your user account.

Time Position Orientation Groundspeed Altitude Reporting Facility
EDT Latitude Longitude Course Direction KTS MPH feet Rate Location/Type
10:13AM 44.0000 -30.0000 273° West 454 522 43,000  Level ETMS Enhanced Traffic Management System
10:20AM 44.0580 -31.5767 272° West 454 522 43,000  Level FlightAware Transoceanic
10:21AM 44.0631 -31.7521 272° West 454 522 43,000  Level FlightAware Transoceanic
10:22AM 44.0680 -31.9275 272° West 454 522 43,000  Level FlightAware Transoceanic
10:23AM 44.0725 -32.1029 272° West 454 522 43,000  Level FlightAware Transoceanic
10:24AM 44.0769 -32.2784 272° West 454 522 43,000  Level FlightAware Transoceanic
10:25AM 44.0809 -32.4538 272° West 454 522 43,000  Level FlightAware Transoceanic
10:26AM 44.0846 -32.6293 272° West 454 522 43,000  Level FlightAware Transoceanic
10:27AM 44.0881 -32.8048 272° West 454 522 43,000  Level FlightAware Transoceanic
10:28AM 44.0914 -32.9804 271° West 454 522 43,000  Level FlightAware Transoceanic
10:29AM 44.0943 -33.1559 271° West 454 522 43,000  Level FlightAware Transoceanic
10:30AM 44.0970 -33.3315 271° West 454 522 43,000  Level FlightAware Transoceanic
10:31AM 44.0994 -33.5071 271° West 454 522 43,000  Level FlightAware Transoceanic
10:32AM 44.1016 -33.6827 271° West 454 522 43,000  Level FlightAware Transoceanic
10:33AM 44.1035 -33.8583 271° West 454 522 43,000  Level FlightAware Transoceanic
10:34AM 44.1051 -34.0339 271° West 454 522 43,000  Level FlightAware Transoceanic
10:35AM 44.1064 -34.2096 271° West 454 522 43,000  Level FlightAware Transoceanic
10:36AM 44.1075 -34.3852 270° West 454 522 43,000  Level FlightAware Transoceanic
10:37AM 44.1083 -34.5609 270° West 454 522 43,000  Level FlightAware Transoceanic
10:38AM 44.1089 -34.7365 270° West 454 522 43,000  Level FlightAware Transoceanic
10:39AM 44.1091 -34.9122 270° West 454 522 43,000  Level FlightAware Transoceanic
10:40AM 44.1091 -35.0878 270° West 454 522 43,000  Level FlightAware Transoceanic
10:41AM 44.1089 -35.2635 270° West 454 522 43,000  Level FlightAware Transoceanic
10:42AM 44.1083 -35.4391 270° West 454 522 43,000  Level FlightAware Transoceanic
10:43AM 44.1075 -35.6148 270° West 454 522 43,000  Level FlightAware Transoceanic
10:44AM 44.1064 -35.7904 269° West 454 522 43,000  Level FlightAware Transoceanic
10:45AM 44.1051 -35.9661 269° West 454 522 43,000  Level FlightAware Transoceanic
10:46AM 44.1035 -36.1417 269° West 454 522 43,000  Level FlightAware Transoceanic
10:47AM 44.1016 -36.3173 269° West 454 522 43,000  Level FlightAware Transoceanic
10:48AM 44.0994 -36.4929 269° West 454 522 43,000  Level FlightAware Transoceanic
10:49AM 44.0970 -36.6685 269° West 454 522 43,000  Level FlightAware Transoceanic
10:50AM 44.0943 -36.8441 269° West 454 522 43,000  Level FlightAware Transoceanic
10:51AM 44.0914 -37.0196 269° West 454 522 43,000  Level FlightAware Transoceanic
10:52AM 44.0881 -37.1952 268° West 454 522 43,000  Level FlightAware Transoceanic
10:53AM 44.0846 -37.3707 268° West 454 522 43,000  Level FlightAware Transoceanic
10:54AM 44.0809 -37.5462 268° West 454 522 43,000  Level FlightAware Transoceanic
10:55AM 44.0769 -37.7216 268° West 454 522 43,000  Level FlightAware Transoceanic
10:56AM 44.0725 -37.8971 268° West 454 522 43,000  Level FlightAware Transoceanic
10:57AM 44.0680 -38.0725 268° West 454 522 43,000  Level FlightAware Transoceanic
10:58AM 44.0631 -38.2479 268° West 454 522 43,000  Level FlightAware Transoceanic
10:59AM 44.0580 -38.4233 268° West 454 522 43,000  Level FlightAware Transoceanic
11:00AM 44.0527 -38.5986 267° West 454 522 43,000  Level FlightAware Transoceanic
11:01AM 44.0470 -38.7739 267° West 454 522 43,000  Level FlightAware Transoceanic
11:02AM 44.0411 -38.9492 267° West 454 522 43,000  Level FlightAware Transoceanic
11:03AM 44.0349 -39.1244 267° West 454 522 43,000  Level FlightAware Transoceanic
11:04AM 44.0285 -39.2996 267° West 454 522 43,000  Level FlightAware Transoceanic
11:05AM 44.0218 -39.4748 267° West 454 522 43,000  Level FlightAware Transoceanic
11:06AM 44.0148 -39.6499 267° West 454 522 43,000  Level FlightAware Transoceanic
11:07AM 44.0075 -39.8250 267° West 454 522 43,000  Level FlightAware Transoceanic
11:08AM 44.0161 -39.9671 275° West  Level Estimated
11:09AM 44.0245 -40.1093 275° West  Level Estimated
11:10AM 44.0327 -40.2516 275° West  Level Estimated
11:11AM 44.0407 -40.3939 275° West  Level Estimated
11:12AM 44.0485 -40.5362 274° West  Level Estimated
11:12AM 44.0000 -40.0000 273° West 455 524 43,000  Level New York Oceanic (ODAPS)
11:13AM 44.0562 -40.6786 274° West  Level Estimated
11:14AM 44.0637 -40.8210 274° West  Level Estimated
11:15AM 44.0710 -40.9634 274° West  Level Estimated
11:16AM 44.0782 -41.1059 274° West  Level Estimated
11:17AM 44.0851 -41.2484 274° West  Level Estimated
11:18AM 44.0919 -41.3909 274° West  Level Estimated
11:19AM 44.0680 -41.9275 272° West 455 524 43,000  Level FlightAware Transoceanic
11:20AM 44.0725 -42.1029 272° West 455 524 43,000  Level FlightAware Transoceanic
11:21AM 44.0769 -42.2784 272° West 455 524 43,000  Level FlightAware Transoceanic
11:22AM 44.0809 -42.4538 272° West 455 524 43,000  Level FlightAware Transoceanic
11:23AM 44.0846 -42.6293 272° West 455 524 43,000  Level FlightAware Transoceanic
11:24AM 44.0881 -42.8048 272° West 455 524 43,000  Level FlightAware Transoceanic
11:25AM 44.0914 -42.9804 271° West 455 524 43,000  Level FlightAware Transoceanic
11:26AM 44.0943 -43.1559 271° West 455 524 43,000  Level FlightAware Transoceanic
11:27AM 44.0970 -43.3315 271° West 455 524 43,000  Level FlightAware Transoceanic
11:28AM 44.0994 -43.5071 271° West 455 524 43,000  Level FlightAware Transoceanic
11:29AM 44.1016 -43.6827 271° West 455 524 43,000  Level FlightAware Transoceanic
11:30AM 44.1035 -43.8583 271° West 455 524 43,000  Level FlightAware Transoceanic
11:31AM 44.1051 -44.0339 271° West 455 524 43,000  Level FlightAware Transoceanic
11:32AM 44.1064 -44.2096 271° West 455 524 43,000  Level FlightAware Transoceanic
11:33AM 44.1075 -44.3852 270° West 455 524 43,000  Level FlightAware Transoceanic
11:34AM 44.1083 -44.5609 270° West 455 524 43,000  Level FlightAware Transoceanic
11:35AM 44.1089 -44.7365 270° West 455 524 43,000  Level FlightAware Transoceanic
11:36AM 44.1091 -44.9122 270° West 455 524 43,000  Level FlightAware Transoceanic
11:37AM 44.1091 -45.0878 270° West 455 524 43,000  Level FlightAware Transoceanic
11:38AM 44.1089 -45.2635 270° West 455 524 43,000  Level FlightAware Transoceanic
11:39AM 44.1083 -45.4391 270° West 455 524 43,000  Level FlightAware Transoceanic
11:40AM 44.1075 -45.6148 270° West 455 524 43,000  Level FlightAware Transoceanic
11:41AM 44.1064 -45.7904 269° West 455 524 43,000  Level FlightAware Transoceanic
11:42AM 44.1051 -45.9661 269° West 455 524 43,000  Level FlightAware Transoceanic
11:43AM 44.1035 -46.1417 269° West 455 524 43,000  Level FlightAware Transoceanic
11:44AM 44.1016 -46.3173 269° West 455 524 43,000  Level FlightAware Transoceanic
11:45AM 44.0994 -46.4929 269° West 455 524 43,000  Level FlightAware Transoceanic
11:46AM 44.0970 -46.6685 269° West 455 524 43,000  Level FlightAware Transoceanic
11:47AM 44.0943 -46.8441 269° West 455 524 43,000  Level FlightAware Transoceanic
11:48AM 44.0914 -47.0196 269° West 455 524 43,000  Level FlightAware Transoceanic
11:49AM 44.0881 -47.1952 268° West 455 524 43,000  Level FlightAware Transoceanic
11:50AM 44.0846 -47.3707 268° West 455 524 43,000  Level FlightAware Transoceanic
11:51AM 44.0809 -47.5462 268° West 455 524 43,000  Level FlightAware Transoceanic
11:52AM 44.0769 -47.7216 268° West 455 524 43,000  Level FlightAware Transoceanic
11:53AM 44.0725 -47.8971 268° West 455 524 43,000  Level FlightAware Transoceanic
11:54AM 44.0680 -48.0725 268° West 455 524 43,000  Level FlightAware Transoceanic
11:55AM 44.0631 -48.2479 268° West 455 524 43,000  Level FlightAware Transoceanic
11:56AM 44.0580 -48.4233 268° West 455 524 43,000  Level FlightAware Transoceanic
11:57AM 44.0527 -48.5986 267° West 455 524 43,000  Level FlightAware Transoceanic
11:58AM 44.0470 -48.7739 267° West 455 524 43,000  Level FlightAware Transoceanic
11:59AM 44.0411 -48.9492 267° West 455 524 43,000  Level FlightAware Transoceanic
12:00PM 44.0349 -49.1244 267° West 455 524 43,000  Level FlightAware Transoceanic
12:01PM 44.0285 -49.2996 267° West 455 524 43,000  Level FlightAware Transoceanic
12:02PM 44.0218 -49.4748 267° West 455 524 43,000  Level FlightAware Transoceanic
12:03PM 44.0148 -49.6499 267° West 455 524 43,000  Level FlightAware Transoceanic
12:04PM 44.0075 -49.8250 267° West 455 524 43,000  Level FlightAware Transoceanic
12:05PM 44.0000 -50.0000 274° West 455 524 43,000  Level FlightAware Transoceanic
12:06PM 44.0093 -50.1757 274° West 455 524 43,000  Level FlightAware Transoceanic
12:07PM 44.0184 -50.3514 274° West 455 524 43,000  Level FlightAware Transoceanic
12:08PM 44.0271 -50.5272 274° West 455 524 43,000  Level FlightAware Transoceanic
12:08PM 44.0000 -50.0000 274° West 458 527 43,000  Level New York Oceanic (ODAPS)
12:09PM 44.0356 -50.7031 274° West 455 524 43,000  Level FlightAware Transoceanic
12:10PM 44.0439 -50.8790 274° West 455 524 43,000  Level FlightAware Transoceanic
12:11PM 44.0519 -51.0549 274° West 455 524 43,000  Level FlightAware Transoceanic
12:12PM 44.0596 -51.2309 273° West 455 524 43,000  Level FlightAware Transoceanic
12:13PM 44.0670 -51.4070 273° West 455 524 43,000  Level FlightAware Transoceanic
12:14PM 44.0741 -51.5830 273° West 458 527 43,000  Level FlightAware Transoceanic
12:15PM 44.0810 -51.7592 273° West 458 527 43,000  Level FlightAware Transoceanic
12:16PM 44.0877 -51.9353 273° West 458 527 43,000  Level FlightAware Transoceanic
12:16PM 44.0667 -51.7333 273° West 440 506 43,000  Level Moncton Center
12:17PM 44.0940 -52.1115 273° West 458 527 43,000  Level FlightAware Transoceanic
12:17PM 44.0833 -51.9000 278° West 460 529 43,000  Level Moncton Center
12:18PM 44.1001 -52.2878 273° West 458 527 43,000  Level FlightAware Transoceanic
12:18PM 44.0833 -52.0833 270° West 460 529 43,000  Level Moncton Center
12:19PM 44.1059 -52.4640 273° West 458 527 43,000  Level FlightAware Transoceanic
12:19PM 44.0833 -52.2667 270° West 460 529 43,000  Level Moncton Center
12:20PM 44.1114 -52.6403 272° West 458 527 43,000  Level FlightAware Transoceanic
12:20PM 44.0833 -52.4500 270° West 450 518 43,000  Level Moncton Center
12:21PM 44.1167 -52.8167 273° West 458 527 43,000  Level FlightAware Transoceanic
12:21PM 44.0833 -52.6167 270° West 450 518 43,000  Level Moncton Center
12:22PM 44.0833 -52.7833 270° West 440 506 43,000  Level Moncton Center
12:23PM 44.1167 -52.9667 284° West 440 506 43,000  Level Moncton Center
12:24PM 44.1333 -53.1000 280° West 430 495 43,000  Level Moncton Center
12:25PM 44.1500 -53.2667 278° West 400 460 43,000  Level Moncton Center
12:26PM 44.1667 -53.4167 279° West 420 483 43,000  Level Moncton Center
12:27PM 44.2000 -53.6000 284° West 430 495 43,000  Level Moncton Center
12:28PM 44.2167 -53.7500 279° West 410 472 43,000  Level Moncton Center
12:29PM 44.2333 -53.9333 277° West 430 495 43,000  Level Moncton Center
12:30PM 44.2667 -54.0833 287° West 430 495 43,000  Level Moncton Center
12:31PM 44.2833 -54.2500 278° West 440 506 43,000  Level Moncton Center
12:32PM 44.3167 -54.4000 287° West 420 483 43,000  Level Moncton Center
12:33PM 44.3333 -54.5667 278° West 450 518 43,000  Level Moncton Center
12:34PM 44.3667 -54.7500 284° West 430 495 43,000  Level Moncton Center
12:35PM 44.3833 -54.8833 280° West 420 483 43,000  Level Moncton Center
12:36PM 44.4000 -55.0667 277° West 430 495 43,000  Level Moncton Center
12:37PM 44.4167 -55.2167 279° West 420 483 43,000  Level Moncton Center
12:38PM 44.4333 -55.3667 279° West 430 495 43,000  Level Moncton Center
12:39PM 44.4667 -55.5500 284° West 430 495 43,000  Level Moncton Center
12:40PM 44.4833 -55.7167 278° West 430 495 43,000  Level Moncton Center
12:41PM 44.5167 -55.8833 286° West 420 483 43,000  Level Moncton Center
12:42PM 44.5167 -56.0667 270° West 430 495 43,000  Level Moncton Center
12:43PM 44.5500 -56.2000 289° West 430 495 43,000  Level Moncton Center
12:44PM 44.5667 -56.3833 277° West 430 495 43,000  Level Moncton Center
12:46PM 44.6000 -56.7167 278° West 430 495 43,000  Level Moncton Center
12:47PM 44.6167 -56.8667 279° West 430 495 43,000  Level Moncton Center
12:48PM 44.6500 -57.0333 286° West 430 495 43,000  Level Moncton Center
12:49PM 44.6500 -57.2167 270° West 430 495 43,000  Level Moncton Center
12:50PM 44.6833 -57.3833 286° West 430 495 43,000  Level Moncton Center
12:51PM 44.7000 -57.5500 278° West 430 495 43,000  Level Moncton Center
12:52PM 44.7167 -57.7167 278° West 430 495 43,000  Level Moncton Center
12:53PM 44.7333 -57.8667 279° West 430 495 43,000  Level Moncton Center
12:54PM 44.7333 -58.0333 270° West 440 506 43,000  Level Moncton Center
12:55PM 44.7667 -58.2000 286° West 440 506 43,000  Level Moncton Center
12:56PM 44.7833 -58.3833 277° West 430 495 43,000  Level Moncton Center
12:57PM 44.8000 -58.5500 278° West 430 495 43,000  Level Moncton Center
12:58PM 44.8167 -58.7333 277° West 430 495 43,000  Level Moncton Center
12:59PM 44.8333 -58.8833 279° West 430 495 43,000  Level Moncton Center
01:00PM 44.8500 -59.0667 277° West 430 495 43,000  Level Moncton Center
01:01PM 44.8667 -59.2333 278° West 430 495 43,000  Level Moncton Center
01:02PM 44.8833 -59.4000 278° West 430 495 43,000  Level Moncton Center
01:03PM 44.8833 -59.5500 270° West 430 495 43,000  Level Moncton Center
01:04PM 44.9000 -59.7167 278° West 430 495 43,000  Level Moncton Center
01:05PM 44.9167 -59.9167 277° West 440 506 43,000  Level Moncton Center
01:06PM 44.9333 -60.0667 279° West 440 506 43,000  Level Moncton Center
01:07PM 44.9500 -60.2333 278° West 440 506 43,000  Level Moncton Center
01:08PM 44.9667 -60.4000 278° West 440 506 43,000  Level Moncton Center
01:09PM 44.9667 -60.5833 270° West 440 506 43,000  Level Moncton Center
01:10PM 45.0000 -60.7500 286° West 430 495 43,000  Level Moncton Center
01:11PM 45.0000 -60.9167 270° West 430 495 43,000  Level Moncton Center
01:12PM 45.0167 -61.0833 278° West 430 495 43,000  Level Moncton Center
01:13PM 45.0333 -61.2667 277° West 440 506 43,000  Level Moncton Center
01:14PM 45.0333 -61.4333 270° West 440 506 43,000  Level Moncton Center
01:15PM 45.0000 -61.6000 254° West 440 506 43,000  Level Moncton Center
01:16PM 45.0000 -61.7667 270° West 440 506 43,000  Level Moncton Center
01:17PM 44.9667 -61.9333 254° West 430 495 43,000  Level Moncton Center
01:18PM 44.9500 -62.1000 262° West 430 495 43,000  Level Moncton Center
01:19PM 44.9167 -62.2667 254° West 430 495 43,000  Level Moncton Center
01:20PM 44.9000 -62.4333 262° West 430 495 43,000  Level Moncton Center
01:21PM 44.8667 -62.6000 254° West 440 506 43,000  Level Moncton Center
01:22PM 44.8667 -62.7667 270° West 430 495 43,000  Level Moncton Center
01:23PM 44.8333 -62.9667 257° West 430 495 43,000  Level Moncton Center
01:24PM 44.8167 -63.1000 260° West 430 495 43,000  Level Moncton Center
01:25PM 44.7833 -63.2667 254° West 440 506 43,000  Level Moncton Center
01:26PM 44.7500 -63.4500 256° West 450 518 43,000  Level Moncton Center
01:27PM 44.7333 -63.6167 262° West 440 506 43,000  Level Moncton Center
01:28PM 44.7000 -63.7833 254° West 430 495 43,000  Level Moncton Center
01:29PM 44.6833 -63.9500 262° West 430 495 43,000  Level Moncton Center
01:30PM 44.6500 -64.1167 254° West 430 495 43,000  Level Moncton Center
01:31PM 44.6333 -64.2833 262° West 430 495 43,000  Level Moncton Center
01:32PM 44.6000 -64.4500 254° West 430 495 43,000  Level Moncton Center
01:33PM 44.5833 -64.6167 262° West 430 495 43,000  Level Moncton Center
01:34PM 44.5500 -64.7667 253° West 440 506 43,000  Level Moncton Center
01:35PM 44.5333 -64.9667 263° West 440 506 43,000  Level Moncton Center
01:36PM 44.5000 -65.1000 251° West 440 506 43,000  Level Moncton Center
01:37PM 44.4833 -65.2667 262° West 440 506 43,000  Level Moncton Center
01:38PM 44.4500 -65.4500 256° West 440 506 43,000  Level Moncton Center
01:39PM 44.4333 -65.6167 262° West 440 506 43,000  Level Moncton Center
01:40PM 44.4000 -65.7833 254° West 440 506 43,000  Level Moncton Center
01:41PM 44.3833 -65.9333 261° West 440 506 43,000  Level Moncton Center
01:42PM 44.3333 -66.1333 251° West 440 506 43,000  Level Moncton Center
01:43PM 44.3000 -66.2833 253° West 450 518 43,000  Level Moncton Center
01:44PM 44.2833 -66.4500 262° West 450 518 43,000  Level Moncton Center
01:45PM 44.2500 -66.6167 254° West 450 518 43,000  Level Moncton Center
01:46PM 44.2333 -66.7833 262° West 450 518 43,000  Level Moncton Center
01:47PM 44.1833 -66.9667 249° West 440 506 43,000  Level Moncton Center
01:48PM 44.1667 -67.1167 261° West 440 506 43,000  Level Moncton Center
01:49PM 44.1333 -67.3167 257° West 450 518 43,000  Level Moncton Center
01:50PM 44.1000 -67.4667 253° West 450 518 43,000  Level Moncton Center
01:51PM 44.0667 -67.6500 256° West 460 529 43,000  Level Moncton Center
01:52PM 44.0333 -67.8167 255° West 460 529 43,000  Level Moncton Center
01:53PM 44.0167 -68.0000 263° West 460 529 43,000  Level Moncton Center
01:54PM 43.9667 -68.1667 247° West 460 529 43,000  Level Moncton Center
01:55PM 43.9333 -68.3167 253° West 460 529 43,000  Level Moncton Center
01:56PM 43.9167 -68.5000 263° West 450 518 43,000  Level Moncton Center
01:57PM 43.8667 -68.6667 247° West 450 518 43,000  Level Moncton Center
01:58PM 43.8333 -68.8167 253° West 450 518 43,000  Level Moncton Center
01:59PM 43.8000 -69.0000 256° West 450 518 43,000  Level Moncton Center
02:00PM 43.7667 -69.1667 255° West 450 518 43,000  Level Moncton Center
02:01PM 43.7500 -69.3333 262° West 450 518 43,000  Level Moncton Center
02:02PM 43.7167 -69.4833 253° West 450 518 43,000  Level Moncton Center
02:03PM 43.6833 -69.6667 256° West 450 518 43,000  Level Moncton Center
02:04PM 43.6333 -69.8500 249° West 460 529 43,000  Level Moncton Center
02:05PM 43.6167 -70.0000 261° West 440 506 43,000  Level Moncton Center
02:06PM 43.5667 -70.1667 248° West 450 518 43,000  Level Moncton Center
02:07PM 43.5333 -70.3500 256° West 450 518 43,000  Level Moncton Center
02:08PM 43.5000 -70.4833 251° West 460 529 43,000  Level Moncton Center
02:09PM 43.4500 -70.6667 249° West 450 518 43,000  Level Moncton Center
02:10PM 43.4333 -70.8167 261° West 460 529 43,000  Level Moncton Center
02:11PM 43.3833 -71.0000 249° West 480 552 43,000  Level Moncton Center
02:12PM 43.3667 -71.1500 261° West 450 518 43,000  Level Moncton Center
02:13PM 43.3250 -71.3756 256° West 467 537 43,000  Level Boston Center
02:14PM 43.2950 -71.5158 254° West 467 537 43,000  Level Boston Center
02:15PM 43.2483 -71.6989 251° West 467 537 43,000 -360 Level Boston Center
02:16PM 43.2097 -71.8733 253° West 472 543 42,300 -1,320 Descending Boston Center
02:17PM 43.1708 -72.0444 253° West 472 543 40,400 -2,160 Descending Boston Center
02:18PM 43.1336 -72.2011 252° West 461 531 38,000 -2,340 Descending Boston Center
02:19PM 43.0944 -72.3803 253° West 451 519 35,800 -2,340 Descending Boston Center
02:20PM 43.0569 -72.5425 252° West 451 519 33,400 -2,580 Descending Boston Center
02:21PM 43.0128 -72.7097 250° West 459 528 30,700 -2,700 Descending Boston Center
02:22PM 42.9728 -72.8742 252° West 467 537 28,000 -2,460 Descending Boston Center
02:23PM 42.9428 -73.0244 255° West 467 537 25,800 -2,040 Descending Boston Center
02:24PM 42.9022 -73.1828 251° West 461 531 24,000 -1,560 Descending Boston Center
02:25PM 42.8658 -73.3381 252° West 455 524 22,700 -1,800 Descending Boston Center
02:26PM 42.8269 -73.4903 251° West 442 509 20,400 -2,400 Descending Boston Center
02:27PM 42.7881 -73.6369 250° West 397 457 17,900 -2,100 Descending Boston Center
02:28PM 42.7492 -73.7633 247° West 389 448 16,200 -960 Descending Boston Center
02:29PM 42.6603 -73.8658 220° Southwest 381 438 16,000 -120 Descending Boston Center
02:30PM 42.5678 -73.9200 203° Southwest 372 428 16,000  Level Boston Center
02:31PM 42.4897 -73.9942 215° Southwest 381 438 16,000  Level Boston Center
02:32PM 42.3906 -74.0761 211° Southwest 381 438 16,000  Level Boston Center
02:33PM 42.3106 -74.1386 210° Southwest 381 438 16,000  Level Boston Center
02:34PM 42.2197 -74.2258 215° Southwest 376 433 16,000  Level Boston Center
02:35PM 42.1353 -74.2878 209° Southwest 381 438 16,000 -480 Level Boston Center
02:36PM 42.0283 -74.3322 197° South 381 438 15,100 -1,260 Descending Boston Center
02:37PM 41.9400 -74.3686 197° South 376 433 13,500 -1,680 Descending Boston Center
02:38PM 41.8533 -74.4442 213° Southwest 351 404 11,800 -1,560 Descending Boston Center
02:39PM 41.7733 -74.4833 200° South 346 398 10,400 -1,500 Descending Boston Center
02:40PM 41.6872 -74.5194 197° South 321 369 8,800 -1,380 Descending Boston Center
02:41PM 41.6242 -74.5425 195° South 284 327 7,700 -1,320 Descending Boston Center
02:42PM 41.5428 -74.5619 190° South 271 312 6,200 -600 Descending Boston Center
02:44PM 41.3833 -74.5833 186° South 276 318 6,000 -180 Descending New York TRACON
02:45PM 41.3167 -74.5667 169° South 269 310 5,800 -1,020 Descending New York TRACON
02:46PM 41.2500 -74.5500 169° South 244 281 4,000 -900 Descending New York TRACON
02:47PM 41.2000 -74.5000 143° Southeast 243 280 4,000 -480 Level New York TRACON
02:48PM 41.1667 -74.4333 124° Southeast 248 285 3,200 -540 Descending New York TRACON
02:49PM 41.1333 -74.3500 118° Southeast 236 272 3,000 -60 Descending New York TRACON
02:50PM 41.1167 -74.2667 105° East 243 280 3,100  Climbing New York TRACON
02:51PM 41.0833 -74.1833 118° Southeast 244 281 3,100 -600 Level New York TRACON
02:52PM 41.0500 -74.1167 124° Southeast 235 270 2,000 -600 Descending New York TRACON
02:53PM 41.0000 -74.0667 143° Southeast 207 238 2,000 -60 Level New York TRACON
02:54PM 40.9500 -74.0500 166° South 180 207 1,900 -480 Descending New York TRACON
02:55PM 40.9167 -74.0500 180° South 135 155 1,200 -720 Descending New York TRACON
02:56PM 40.8667 -74.0500 180° South 132 152 500 -660 Descending New York TRACON